createdAt,value
2019-01-21T00:01:23.429Z,15.43
2019-01-21T00:03:50.598Z,16.20
2019-01-21T00:06:17.787Z,16.37
2019-01-21T00:08:44.974Z,14.93
2019-01-21T00:11:12.159Z,15.27
2019-01-21T00:13:39.367Z,14.70
2019-01-21T00:16:06.607Z,16.03
2019-01-21T00:18:33.789Z,16.70
2019-01-21T00:21:01.006Z,15.50
2019-01-21T00:23:28.182Z,15.43
2019-01-21T00:25:55.368Z,16.63
2019-01-21T00:28:22.555Z,15.50
2019-01-21T00:30:49.747Z,16.90
2019-01-21T00:33:16.933Z,16.77
2019-01-21T00:35:44.116Z,14.57
2019-01-21T00:38:11.325Z,15.27
2019-01-21T00:40:38.506Z,16.13
2019-01-21T00:43:05.675Z,15.37
2019-01-21T00:45:32.878Z,15.63
2019-01-21T00:48:00.065Z,14.83
2019-01-21T00:50:27.255Z,14.70
2019-01-21T00:52:54.422Z,13.97
2019-01-21T00:55:21.625Z,16.63
2019-01-21T00:57:48.798Z,13.83
2019-01-21T01:00:19.933Z,14.97
2019-01-21T01:02:47.191Z,15.13
2019-01-21T01:05:14.380Z,14.40
2019-01-21T01:07:41.571Z,14.07
2019-01-21T01:10:09.823Z,14.60
2019-01-21T01:12:37.028Z,14.90
2019-01-21T01:15:05.370Z,14.77
2019-01-21T01:17:37.132Z,15.10
2019-01-21T01:20:01.463Z,14.50
2019-01-21T01:22:28.653Z,15.23
2019-01-21T01:24:55.920Z,13.60
2019-01-21T01:27:23.139Z,14.17
2019-01-21T01:29:50.296Z,14.13
2019-01-21T01:32:17.483Z,15.03
2019-01-21T01:34:44.670Z,15.90
2019-01-21T01:37:11.858Z,14.77
2019-01-21T01:39:39.023Z,15.60
2019-01-21T01:42:06.235Z,14.90
2019-01-21T01:44:33.495Z,15.30
2019-01-21T01:47:00.670Z,13.70
2019-01-21T01:49:27.843Z,15.80
2019-01-21T01:51:55.027Z,15.73
2019-01-21T01:54:22.221Z,16.70
2019-01-21T01:56:49.471Z,15.17
2019-01-21T01:59:16.737Z,15.77
2019-01-21T02:01:43.925Z,15.83
2019-01-21T02:04:11.181Z,15.30
2019-01-21T02:06:38.359Z,15.73
2019-01-21T02:09:06.298Z,13.73
2019-01-21T02:11:33.505Z,16.50
2019-01-21T02:14:00.686Z,15.47
2019-01-21T02:16:27.870Z,18.30
2019-01-21T02:18:55.069Z,15.50
2019-01-21T02:21:22.310Z,15.37
2019-01-21T02:23:50.931Z,17.07
2019-01-21T02:26:18.896Z,15.10
2019-01-21T02:28:47.769Z,15.47
2019-01-21T02:31:22.306Z,14.37
2019-01-21T02:33:57.055Z,16.77
2019-01-21T02:36:42.355Z,16.47
2019-01-21T02:39:17.259Z,16.17
2019-01-21T02:41:44.959Z,14.63
2019-01-21T02:44:13.817Z,15.77
2019-01-21T02:46:42.905Z,14.83
2019-01-21T02:49:29.898Z,13.40
2019-01-21T02:52:15.322Z,14.33
2019-01-21T02:54:50.055Z,13.77
2019-01-21T02:57:21.868Z,14.93
2019-01-21T02:59:50.716Z,14.00
2019-01-21T03:02:25.623Z,15.27
2019-01-21T03:04:54.812Z,14.93
2019-01-21T03:07:23.709Z,15.03
2019-01-21T03:09:52.524Z,13.53
2019-01-21T03:12:21.364Z,16.00
2019-01-21T03:14:53.320Z,13.77
2019-01-21T03:17:25.354Z,15.27
2019-01-21T03:20:03.151Z,17.03
2019-01-21T03:22:32.022Z,15.60
2019-01-21T03:25:00.851Z,16.07
2019-01-21T03:27:33.188Z,16.53
2019-01-21T03:30:04.971Z,18.67
2019-01-21T03:32:33.769Z,16.43
2019-01-21T03:35:05.533Z,17.73
2019-01-21T03:37:40.311Z,17.70
2019-01-21T03:40:18.043Z,16.00
2019-01-21T03:42:46.855Z,15.77
2019-01-21T03:45:32.073Z,16.00
2019-01-21T03:48:00.887Z,15.23
2019-01-21T03:50:29.787Z,17.03
2019-01-21T03:52:58.630Z,17.37
2019-01-21T03:55:25.895Z,16.23
2019-01-21T03:57:54.791Z,16.67
2019-01-21T04:00:32.886Z,17.43
2019-01-21T04:03:22.179Z,17.60
2019-01-21T04:05:53.699Z,17.63
2019-01-21T04:08:31.353Z,16.87
2019-01-21T04:11:00.151Z,18.87
2019-01-21T04:13:31.726Z,18.33
2019-01-21T04:16:09.763Z,18.33
2019-01-21T04:18:55.307Z,17.17
2019-01-21T04:21:26.775Z,17.50
2019-01-21T04:23:55.577Z,16.37
2019-01-21T04:26:27.279Z,17.13
2019-01-21T04:28:56.079Z,16.07
2019-01-21T04:31:27.629Z,17.03
2019-01-21T04:33:59.170Z,16.60
2019-01-21T04:36:40.050Z,17.10
2019-01-21T04:39:08.867Z,16.87
2019-01-21T04:41:38.635Z,15.73
2019-01-21T04:44:13.258Z,16.50
2019-01-21T04:46:42.080Z,17.53
2019-01-21T04:49:11.868Z,15.20
2019-01-21T04:51:40.695Z,17.07
2019-01-21T04:54:15.351Z,16.23
2019-01-21T04:56:46.922Z,15.83
2019-01-21T04:59:32.030Z,16.20
2019-01-21T05:02:17.399Z,17.00
2019-01-21T05:05:02.612Z,17.50
2019-01-21T05:07:34.093Z,18.27
2019-01-21T05:10:11.585Z,18.20
2019-01-21T05:12:40.486Z,18.73
2019-01-21T05:15:09.304Z,19.03
2019-01-21T05:17:41.122Z,19.03
2019-01-21T05:20:12.622Z,19.57
2019-01-21T05:22:41.491Z,17.90
2019-01-21T05:25:16.244Z,19.53
2019-01-21T05:27:46.130Z,19.47
2019-01-21T05:30:23.786Z,19.07
2019-01-21T05:33:04.575Z,19.80
2019-01-21T05:35:33.415Z,19.13
2019-01-21T05:38:02.259Z,18.73
2019-01-21T05:40:46.330Z,19.87
2019-01-21T05:43:17.943Z,18.47
2019-01-21T05:46:02.912Z,17.60
2019-01-21T05:48:49.876Z,21.90
2019-01-21T05:51:21.146Z,18.10
2019-01-21T05:53:50.010Z,18.20
2019-01-21T05:56:24.666Z,18.87
2019-01-21T05:59:09.693Z,18.73
2019-01-21T06:01:44.345Z,18.93
2019-01-21T06:04:15.886Z,18.97
2019-01-21T06:07:02.493Z,51.60
2019-01-21T06:09:34.064Z,25.80
2019-01-21T06:12:11.794Z,18.67
2019-01-21T06:14:56.806Z,18.73
2019-01-21T06:17:34.785Z,19.40
2019-01-21T06:20:03.662Z,21.13
2019-01-21T06:22:35.146Z,19.67
2019-01-21T06:25:03.991Z,21.00
2019-01-21T06:27:41.574Z,20.50
2019-01-21T06:30:10.378Z,18.60
2019-01-21T06:32:39.222Z,18.57
2019-01-21T06:35:23.124Z,19.73
2019-01-21T06:37:57.628Z,18.50
2019-01-21T06:40:32.404Z,18.33
2019-01-21T06:43:13.026Z,19.80
2019-01-21T06:45:56.594Z,20.13
2019-01-21T06:48:28.432Z,18.53
2019-01-21T06:51:09.035Z,18.30
2019-01-21T06:53:40.749Z,18.47
2019-01-21T06:56:25.741Z,18.93
2019-01-21T06:59:06.118Z,18.73
2019-01-21T07:01:37.404Z,20.67
2019-01-21T07:04:06.221Z,20.50
2019-01-21T07:06:35.028Z,20.33
2019-01-21T07:09:04.008Z,21.23
2019-01-21T07:11:38.810Z,18.67
2019-01-21T07:14:16.263Z,20.03
2019-01-21T07:16:59.902Z,21.30
2019-01-21T07:19:28.762Z,22.20
2019-01-21T07:22:09.465Z,19.67
2019-01-21T07:24:38.302Z,21.03
2019-01-21T07:27:22.023Z,21.37
2019-01-21T07:30:07.443Z,20.50
2019-01-21T07:32:36.262Z,22.30
2019-01-21T07:35:21.770Z,20.17
2019-01-21T07:37:59.392Z,22.07
2019-01-21T07:40:37.174Z,20.47
2019-01-21T07:43:09.063Z,22.30
2019-01-21T07:45:41.345Z,25.37
2019-01-21T07:48:14.391Z,25.13
2019-01-21T07:50:46.116Z,25.47
2019-01-21T07:53:32.966Z,25.50
2019-01-21T07:56:10.528Z,23.07
2019-01-21T07:58:51.077Z,23.27
2019-01-21T08:01:28.806Z,24.60
2019-01-21T08:04:12.486Z,24.43
2019-01-21T08:06:52.926Z,22.67
2019-01-21T08:09:21.763Z,24.43
2019-01-21T08:11:59.361Z,22.10
2019-01-21T08:14:30.749Z,22.77
2019-01-21T08:17:15.786Z,22.60
2019-01-21T08:19:47.089Z,23.83
2019-01-21T08:22:24.905Z,23.93
2019-01-21T08:24:56.342Z,24.40
2019-01-21T10:02:14.801Z,25.47
2019-01-21T10:04:43.538Z,24.60
2019-01-21T10:07:12.353Z,27.40
2019-01-21T10:09:41.172Z,25.37
2019-01-21T10:12:09.993Z,23.97
2019-01-21T10:14:38.835Z,26.60
2019-01-21T10:17:07.659Z,23.87
2019-01-21T10:19:39.193Z,27.37
2019-01-21T10:22:11.059Z,36.83
2019-01-21T10:24:51.929Z,27.87
2019-01-21T10:27:26.692Z,29.07
2019-01-21T10:30:04.775Z,26.40
2019-01-21T10:32:50.477Z,26.00
2019-01-21T10:35:24.974Z,28.97
2019-01-21T10:38:02.473Z,27.87
2019-01-21T10:40:31.299Z,30.43
2019-01-21T10:43:00.161Z,35.20
2019-01-21T10:45:29.003Z,33.20
2019-01-21T10:47:57.906Z,29.53
2019-01-21T10:50:41.978Z,33.03
2019-01-21T10:53:22.754Z,37.30
2019-01-21T10:55:54.514Z,30.43
2019-01-21T10:58:23.360Z,27.33
2019-01-21T11:00:57.847Z,28.17
2019-01-21T11:03:29.608Z,31.20
2019-01-21T11:05:58.437Z,30.80
2019-01-21T11:08:30.224Z,31.20
2019-01-21T11:11:02.001Z,27.07
2019-01-21T11:13:39.800Z,35.57
2019-01-21T11:16:08.646Z,29.40
2019-01-21T11:18:40.226Z,28.90
2019-01-21T11:21:11.959Z,29.87
2019-01-21T11:23:40.778Z,32.40
2019-01-21T11:26:15.734Z,30.87
2019-01-21T11:28:59.460Z,31.33
2019-01-21T11:31:40.127Z,32.43
2019-01-21T11:34:11.636Z,29.03
2019-01-21T11:36:40.464Z,29.70
2019-01-21T11:39:09.301Z,28.57
2019-01-21T11:41:43.806Z,26.70
2019-01-21T11:44:12.634Z,28.77
2019-01-21T11:46:41.454Z,28.63
2019-01-21T11:49:19.023Z,24.83
2019-01-21T11:51:53.530Z,26.40
2019-01-21T11:54:25.000Z,24.83
2019-01-21T11:56:53.852Z,25.90
2019-01-21T11:59:22.676Z,26.83
2019-01-21T12:01:57.588Z,25.63
2019-01-21T12:04:32.409Z,25.83
2019-01-21T12:07:17.997Z,24.27
2019-01-21T12:09:49.527Z,24.43
2019-01-21T12:12:21.102Z,25.77
2019-01-21T12:14:52.649Z,24.83
2019-01-21T12:17:24.125Z,23.37
2019-01-21T12:19:52.950Z,23.67
2019-01-21T12:22:30.678Z,25.30
2019-01-21T12:24:59.585Z,25.03
2019-01-21T12:27:34.466Z,24.33
2019-01-21T12:30:06.031Z,25.83
2019-01-21T12:32:46.797Z,24.00
2019-01-21T12:35:18.558Z,24.93
2019-01-21T12:37:47.465Z,24.17
2019-01-21T12:40:16.271Z,23.87
2019-01-21T12:42:51.174Z,25.23
2019-01-21T12:45:19.998Z,25.77
2019-01-21T12:47:51.829Z,23.53
2019-01-21T12:50:35.869Z,21.90
2019-01-21T12:53:04.759Z,22.10
2019-01-21T12:55:39.718Z,22.23
2019-01-21T12:58:14.590Z,20.30
2019-01-21T13:00:46.292Z,22.47
2019-01-21T13:03:30.059Z,23.20
2019-01-21T13:05:58.980Z,22.50
2019-01-21T13:08:27.882Z,23.27
2019-01-21T13:11:05.472Z,23.00
2019-01-21T13:13:34.364Z,23.20
2019-01-21T13:16:04.186Z,26.27
2019-01-21T13:18:33.178Z,26.03
2019-01-21T13:21:02.018Z,25.07
2019-01-21T13:23:33.759Z,25.43
2019-01-21T13:26:11.318Z,27.43
2019-01-21T13:28:40.239Z,25.23
2019-01-21T13:31:09.074Z,24.50
2019-01-21T13:33:54.562Z,25.47
2019-01-21T13:36:29.519Z,24.67
2019-01-21T13:39:16.631Z,24.60
2019-01-21T13:41:51.440Z,26.30
2019-01-21T13:44:22.973Z,23.93
2019-01-21T13:47:08.279Z,29.23
2019-01-21T13:49:37.118Z,25.50
2019-01-21T13:52:21.105Z,26.00
2019-01-21T13:54:59.088Z,26.87
2019-01-21T13:57:42.875Z,26.20
2019-01-21T14:00:11.696Z,26.27
2019-01-21T14:02:40.529Z,24.63
2019-01-21T14:05:30.871Z,25.83
2019-01-21T14:07:55.048Z,26.10
2019-01-21T14:10:41.785Z,26.17
2019-01-21T14:13:26.564Z,25.97
2019-01-21T14:15:56.130Z,26.93
2019-01-21T14:18:41.414Z,25.40
2019-01-21T14:21:11.197Z,22.73
2019-01-21T14:23:40.584Z,25.47
2019-01-21T14:26:26.094Z,28.47
2019-01-21T14:29:00.578Z,24.10
2019-01-21T14:31:32.083Z,26.40
2019-01-21T14:34:09.719Z,24.47
2019-01-21T14:36:47.377Z,25.13
2019-01-21T14:39:18.976Z,25.13
2019-01-21T14:42:05.844Z,25.00
2019-01-21T14:44:49.865Z,21.37
2019-01-21T14:47:18.777Z,22.67
2019-01-21T14:49:53.479Z,23.50
2019-01-21T14:52:40.521Z,25.77
2019-01-21T14:55:15.108Z,21.40
2019-01-21T14:57:49.729Z,24.57
2019-01-21T15:00:24.652Z,24.57
2019-01-21T15:02:56.519Z,23.70
2019-01-21T15:05:25.357Z,23.23
2019-01-21T15:07:54.262Z,22.53
2019-01-21T15:10:28.972Z,23.97
2019-01-21T15:12:57.844Z,23.50
2019-01-21T15:15:43.063Z,23.87
2019-01-21T15:18:12.017Z,22.80
2019-01-21T15:20:43.677Z,22.07
2019-01-21T15:23:15.221Z,22.10
2019-01-21T15:25:46.743Z,23.30
2019-01-21T15:28:30.588Z,23.30
2019-01-21T15:31:05.609Z,24.20
2019-01-21T15:33:37.253Z,24.03
2019-01-21T15:36:22.631Z,23.47
2019-01-21T15:38:57.361Z,24.70
2019-01-21T15:41:26.362Z,22.20
2019-01-21T15:43:57.945Z,23.23
2019-01-21T15:46:29.742Z,25.50
2019-01-21T15:48:58.578Z,23.13
2019-01-21T15:51:30.382Z,24.40
2019-01-21T15:54:01.886Z,25.63
2019-01-21T15:56:30.714Z,24.10
2019-01-21T15:59:05.513Z,25.03
2019-01-21T16:01:43.058Z,24.80
2019-01-21T16:04:11.898Z,24.60
2019-01-21T16:06:43.464Z,25.70
2019-01-21T16:09:15.125Z,22.50
2019-01-21T16:11:44.009Z,25.40
2019-01-21T16:14:11.204Z,24.70
2019-01-21T16:16:46.005Z,26.57
2019-01-21T16:19:14.279Z,24.50
2019-01-21T16:21:48.874Z,27.57
2019-01-21T16:24:17.730Z,25.97
2019-01-21T16:26:47.312Z,24.87
2019-01-21T16:29:16.189Z,26.53
2019-01-21T16:31:44.285Z,27.37
2019-01-21T16:34:22.030Z,29.77
2019-01-21T16:36:50.856Z,26.43
2019-01-21T16:39:19.692Z,26.77
2019-01-21T16:41:51.271Z,25.37
2019-01-21T16:44:18.548Z,27.40
2019-01-21T16:46:45.797Z,27.60
2019-01-21T16:49:13.065Z,26.27
2019-01-21T16:51:40.253Z,29.23
2019-01-21T16:54:07.480Z,30.30
2019-01-21T16:56:34.669Z,28.77
2019-01-21T16:59:01.938Z,29.00
2019-01-21T17:01:29.180Z,28.77
2019-01-21T17:03:56.452Z,29.40
2019-01-21T17:06:23.721Z,28.30
2019-01-21T17:08:51.059Z,28.57
2019-01-21T17:11:18.323Z,29.83
2019-01-21T17:13:45.521Z,27.77
2019-01-21T17:16:12.741Z,28.07
2019-01-21T17:18:40.005Z,29.30
2019-01-21T17:21:07.427Z,28.17
2019-01-21T17:23:34.632Z,28.67
2019-01-21T17:26:01.837Z,29.10
2019-01-21T17:28:29.043Z,31.73
2019-01-21T17:30:56.299Z,30.50
2019-01-21T17:33:23.504Z,28.83
2019-01-21T17:35:50.796Z,28.43
2019-01-21T17:38:18.014Z,31.00
2019-01-21T17:40:45.341Z,31.33
2019-01-21T17:43:12.569Z,28.50
2019-01-21T17:45:39.768Z,29.67
2019-01-21T17:48:07.010Z,30.63
2019-01-21T17:50:34.270Z,28.57
2019-01-21T17:53:01.509Z,29.03
2019-01-21T17:55:28.773Z,28.97
2019-01-21T17:57:56.044Z,30.80
2019-01-21T18:00:24.146Z,27.97
2019-01-21T18:02:51.545Z,28.07
2019-01-21T18:05:18.736Z,30.53
2019-01-21T18:07:46.032Z,29.83
2019-01-21T18:10:17.016Z,31.30
2019-01-21T18:12:44.283Z,32.53
2019-01-21T18:15:12.313Z,30.60
2019-01-21T18:17:39.503Z,32.90
2019-01-21T18:20:08.469Z,31.13
2019-01-21T18:22:35.710Z,30.93
2019-01-21T18:25:03.085Z,34.53
2019-01-21T18:27:30.289Z,31.93
2019-01-21T18:29:58.127Z,33.70
2019-01-21T18:32:25.398Z,33.33
2019-01-21T18:34:52.647Z,28.20
2019-01-21T18:37:19.921Z,31.73
2019-01-21T18:39:47.509Z,31.00
2019-01-21T18:42:14.754Z,33.33
2019-01-21T18:44:41.943Z,31.87
2019-01-21T18:47:09.240Z,31.50
2019-01-21T18:49:36.431Z,33.30
2019-01-21T18:52:03.641Z,28.83
2019-01-21T18:54:30.861Z,32.63
2019-01-21T18:56:58.068Z,30.73
2019-01-21T18:59:25.353Z,29.97
2019-01-21T19:01:52.614Z,34.73
2019-01-21T19:04:19.855Z,30.77
2019-01-21T19:06:47.067Z,31.07
2019-01-21T19:09:14.254Z,33.23
2019-01-21T19:11:41.458Z,33.17
2019-01-21T19:14:08.670Z,32.73
2019-01-21T19:16:35.903Z,32.77
2019-01-21T19:19:03.219Z,31.47
2019-01-21T19:21:32.049Z,32.27
2019-01-21T19:23:59.307Z,35.30
2019-01-21T19:26:26.538Z,31.47
2019-01-21T19:28:53.767Z,29.07
2019-01-21T19:31:20.974Z,32.57
2019-01-21T19:33:48.243Z,32.90
2019-01-21T19:36:15.596Z,34.50
2019-01-21T19:38:42.878Z,35.60
2019-01-21T19:41:10.082Z,35.27
2019-01-21T19:43:37.274Z,34.63
2019-01-21T19:46:04.489Z,32.43
2019-01-21T19:48:31.691Z,34.70
2019-01-21T19:50:58.880Z,35.27
2019-01-21T19:53:26.092Z,35.60
2019-01-21T19:55:53.274Z,32.10
2019-01-21T19:58:20.481Z,33.90
2019-01-21T20:00:48.976Z,33.03
2019-01-21T20:03:16.213Z,33.53
2019-01-21T20:05:43.431Z,34.97
2019-01-21T20:08:10.659Z,36.30
2019-01-21T20:10:37.908Z,32.60
2019-01-21T20:13:05.251Z,33.53
2019-01-21T20:15:32.451Z,33.70
2019-01-21T20:17:59.816Z,35.83
2019-01-21T20:20:31.385Z,35.90
2019-01-21T20:22:58.669Z,35.83
2019-01-21T20:25:25.984Z,34.70
2019-01-21T20:27:53.239Z,36.17
2019-01-21T20:30:22.084Z,39.70
2019-01-21T20:32:49.417Z,37.77
2019-01-21T20:35:16.750Z,34.23
2019-01-21T20:37:44.083Z,34.30
2019-01-21T20:40:18.906Z,34.90
2019-01-21T20:42:46.154Z,35.70
2019-01-21T20:45:14.584Z,36.57
2019-01-21T20:47:42.133Z,37.83
2019-01-21T20:50:10.988Z,36.60
2019-01-21T20:52:38.274Z,35.80
2019-01-21T20:55:06.435Z,35.17
2019-01-21T20:57:33.632Z,33.10
2019-01-21T21:00:00.864Z,35.50
2019-01-21T21:02:28.167Z,38.00
2019-01-21T21:04:55.439Z,34.07
2019-01-21T21:07:22.813Z,37.53
2019-01-21T21:09:50.064Z,35.70
2019-01-21T21:12:17.276Z,37.63
2019-01-21T21:14:44.555Z,36.47
2019-01-21T21:17:11.823Z,39.00
2019-01-21T21:19:39.132Z,34.70
2019-01-21T21:22:06.355Z,36.43
2019-01-21T21:24:33.645Z,34.17
2019-01-21T21:27:00.838Z,36.33
2019-01-21T21:29:29.462Z,34.30
2019-01-21T21:31:57.008Z,38.60
2019-01-21T21:34:24.275Z,38.63
2019-01-21T21:36:51.561Z,37.43
2019-01-21T21:39:18.850Z,33.83
2019-01-21T21:41:46.116Z,37.03
2019-01-21T21:44:13.388Z,38.50
2019-01-21T21:46:41.138Z,35.63
2019-01-21T21:49:08.444Z,34.93
2019-01-21T21:51:35.749Z,34.10
2019-01-21T21:54:02.986Z,36.13
2019-01-21T21:56:30.261Z,33.07
2019-01-21T21:58:57.536Z,38.30
2019-01-21T22:01:25.056Z,36.90
2019-01-21T22:03:52.430Z,35.73
2019-01-21T22:06:19.737Z,33.87
2019-01-21T22:08:47.050Z,34.23
2019-01-21T22:11:14.296Z,36.30
2019-01-21T22:13:41.639Z,33.50
2019-01-21T22:16:08.899Z,41.03
2019-01-21T22:18:36.170Z,39.37
2019-01-21T22:21:03.456Z,37.20
2019-01-21T22:23:31.061Z,37.03
2019-01-21T22:25:58.344Z,39.23
2019-01-21T22:28:25.617Z,37.33
2019-01-21T22:30:52.815Z,37.33
2019-01-21T22:33:20.151Z,37.73
2019-01-21T22:35:47.470Z,35.53
2019-01-21T22:38:14.758Z,36.63
2019-01-21T22:40:42.072Z,35.40
2019-01-21T22:43:09.432Z,38.33
2019-01-21T22:45:36.717Z,38.20
2019-01-21T22:48:03.980Z,37.03
2019-01-21T22:50:31.296Z,36.23
2019-01-21T22:52:58.561Z,37.50
2019-01-21T22:55:25.820Z,37.33
2019-01-21T22:57:53.104Z,35.80
2019-01-21T23:00:32.339Z,36.23
2019-01-21T23:02:59.684Z,36.23
2019-01-21T23:05:26.890Z,38.40
2019-01-21T23:07:54.079Z,37.33
2019-01-21T23:10:21.383Z,34.60
2019-01-21T23:12:48.648Z,35.90
2019-01-21T23:15:15.916Z,34.40
2019-01-21T23:17:43.240Z,36.50
2019-01-21T23:20:10.547Z,39.77
2019-01-21T23:22:37.814Z,37.30
2019-01-21T23:25:05.350Z,39.67
2019-01-21T23:27:32.654Z,34.50
2019-01-21T23:29:59.944Z,34.83
2019-01-21T23:32:27.270Z,37.93
2019-01-21T23:34:54.551Z,36.63
2019-01-21T23:37:21.837Z,35.67
2019-01-21T23:39:49.161Z,36.37
2019-01-21T23:42:16.456Z,37.33
2019-01-21T23:44:44.525Z,35.40
2019-01-21T23:47:11.812Z,36.90
2019-01-21T23:49:39.183Z,35.67
2019-01-21T23:52:06.908Z,33.93
2019-01-21T23:54:34.191Z,38.23
2019-01-21T23:57:01.485Z,37.53
2019-01-21T23:59:28.958Z,36.23
